Aktualne dane pomiarowe

Uwaga, wersja testowa! Automatyczne pobieranie danych za pomocą narzędzi lub skryptów to umożliwiających jest zabronione.

Dane meteo z obszaru Polski uzyskane na podstawie depesz SYNOP pobieranych co godzinę z NWS. Najedź myszką na symbol przedstawiony w tabeli, aby uzyskać informacje co do jego znaczenia. Prosimy pamiętać, że to testowa wersja strony, która jeszcze nie jest ukończona. Stworzono również jest krótki FAQ dotyczący korzystania z tej podstrony Anomalie temperatury w chwili obecnej odniesione są do okresu referencyjnego 1951-2016. Okres ten będzie później zmieniony na 1981-2010. Kliknij ikonę aby pobrać plik CSV. Kliknij ikonę aby wygenerować mapę synoptyczną dla danego terminu.

Wybierz Datę:    

        

Tarnów (12575)

Dane terminowe dla wybranej stacji. Kliknij datę, aby otrzymać dane z tego terminu dla wszystkich stacji.

TemperaturaZachmurzenieWiatrCiśnienieOpadyPogoda
 Data t td wb tx tn tg rh  Nt Nl Cl Cm Ch ws wd g1 g2 wx mslp ppp ch 24h 12h t ww ww w1 w2  
2019-06-19 23:00:00 19.3 17.6 18.1--- 908.0--0----1011.5 987.1 -0.5---wx-----
2019-06-19 22:00:00 20.2 18.3 18.8--- 8910.0--1wx---1011.5 987.2 -0.8---------
2019-06-19 21:00:00 21.2 18.9 19.5--- 8712.0--1wx--11011.9 987.6 -0.2---------
2019-06-19 20:00:00 21.6 18.8 19.6--- 8414.0--1wx--11011.8 987.6 0.1---------
2019-06-19 19:00:00 22.4 18.8 19.9--- 806.0--1wx--11012.2 988.0 0.6---------
2019-06-19 18:00:00 23.2 18.5 19.9 30.7 21.8- 7515.0--1wx-1011011.9 987.8 0.1- 0.012------
2019-06-19 17:00:00 24.6 18.5 20.4--- 6921.0--0---01011.5 987.5 -0.3---------
2019-06-19 16:00:00 25.2 17.7 20.2--- 6321.0--3wx--31011.3 987.4 -0.5---------
2019-06-19 15:00:00 26.4 16.0 19.7--- 5326.0--3wx---1011.5 987.7 -0.7---------
2019-06-19 14:00:00 28.1 17.0 20.8--- 5116.0--4wx101041011.5 987.8 -1.4---------
2019-06-19 13:00:00 29.5 12.4 19.0--- 3525.0--2wx--21011.5 987.9 -1.6---------
2019-06-19 12:00:00 30.2 14.7 20.4--- 3920.0--2wx--21011.9 988.4 -1.5- 0.06------
2019-06-19 11:00:00 28.6 15.5 20.2--- 4520.0--2wx--21012.9 989.2 -1.2---------
2019-06-19 10:00:00 27.2 16.2 20.1--- 5118.0--1wx--11013.3 989.5 -1.0---------
2019-06-19 09:00:00 26.1 17.2 20.2--- 5817.0--1wx--11013.8 989.9 -0.8---------
2019-06-19 08:00:00 23.7 17.7 19.6--- 6913.0--1wx---1014.5 990.4 -0.2---------
2019-06-19 07:00:00 22.5 17.2 18.9--- 7214.0--1wx--11014.7 990.5 0.0---------
2019-06-19 06:00:00 21.8 17.8 19.0 22.9 16.5 16 7810.0--1wx--11015.0 990.7 0.2- 0.012wx---- 6.1
2019-06-19 05:00:00 20.0 18.0 18.6--- 887.0--1wx--11015.0 990.6 -0.2---wx-----
2019-06-19 04:00:00 17.2 16.7 16.8--- 974.1--1wx--11015.2 990.5 -0.4---wx-----
2019-06-19 03:00:00 16.5 15.9 16.0--- 962.9--1wx---1015.2 990.5 -0.8---wx-----
2019-06-19 02:00:00 17.2 16.4 16.6--- 954.6--1wx--11015.5 990.8 -1.1---wx-----
2019-06-19 01:00:00 17.2 16.1 16.4--- 935.0--1wx--11015.6 990.9 -1.2---wx-----
2019-06-19 00:00:00 17.7 16.4 16.8--- 925.0--1wx--11015.9 991.3 -1.0- 0.06wx-----
2019-06-18 23:00:00 17.6 16.3 16.7--- 925.0--1wx--11016.6 991.9 -0.6---wx-----
2019-06-18 22:00:00 18.5 17.0 17.4--- 917.0--0----1016.7 992.1 -0.4---wx-----
2019-06-18 21:00:00 19.4 17.0 17.7--- 868.0--0---01016.8 992.3 -0.1---wx-----
2019-06-18 20:00:00 20.5 17.1 18.1--- 819.0--1wx--11016.9 992.5 -0.2---------
2019-06-18 19:00:00 21.9 17.1 18.6--- 7411.0--1wx--11016.8 992.5 -0.4---------
2019-06-18 18:00:00 22.9 16.7 18.7 24.5 19.3- 6811.0--1wx--11016.6 992.4 -0.7- 0.012------
2019-06-18 17:00:00 23.4 16.2 18.6--- 6413.0--1wx---1016.9 992.7 -0.9---------
2019-06-18 16:00:00 23.9 16.2 18.8--- 6216.0--1wx--11017.1 992.9 -1.2---------
2019-06-18 15:00:00 24.0 16.0 18.7--- 6117.0--2wx---1017.3 993.1 -1.6---------
2019-06-18 14:00:00 24.3 15.2 18.4--- 5718.0--2wx--21017.7 993.6 -1.3---------
2019-06-18 13:00:00 23.6 15.4 18.3--- 6018.0--1wx--11018.3 994.1 -1.1---------
2019-06-18 12:00:00 23.2 14.7 17.7--- 5920.0--1wx--11019.0 994.7 -0.7- 0.06------
2019-06-18 11:00:00 23.5 14.5 17.7--- 5723.0--2wx--21019.1 994.9 -0.8---------
2019-06-18 10:00:00 22.3 14.7 17.4--- 6219.0--2wx--21019.5 995.2 -0.6---------
2019-06-18 09:00:00 23.0 15.1 17.9--- 6120.0--2wx--21019.7 995.4 -0.5---------
2019-06-18 08:00:00 22.5 14.9 17.6--- 6219.0--3wx--31020.0 995.7 -0.2---------
2019-06-18 07:00:00 21.3 15.8 17.6--- 7117.0--2wx---1020.2 995.8 0.1---------
2019-06-18 06:00:00 19.3 15.8 16.9 20.1 12.7 12 8013.0--1wx--11020.5 995.9 0.2 0.1 0.012----- 4.8
2019-06-18 05:00:00 16.6 12.7 14.0--- 7818.0--0---01020.7 995.9 0.3---------
2019-06-18 04:00:00 14.0 13.5 13.6--- 9711.0--0---01020.8 995.7 0.0---------
2019-06-18 03:00:00 12.9 12.3 12.4--- 968.0--0---01020.9 995.7 -0.2---------
2019-06-18 02:00:00 13.0 12.2 12.4--- 956.0--0----1020.8 995.6 -0.5---wx-----
2019-06-18 01:00:00 13.5 12.9 13.0--- 967.0--1wx---1020.8 995.7 -0.5---wx-----
2019-06-18 00:00:00 13.5 12.9 13.0--- 967.0--0---01021.0 995.9 -0.1- 0.06wx-----
2.5 ms

 

Print Friendly, PDF & Email